sensor_id;sensor_type;location;lat;lon;timestamp;P1;durP1;ratioP1;P2;durP2;ratioP2
45893;SDS011;31603;51.148;16.932;2022-10-16T00:01:08;15.18;;;10.60;;
45893;SDS011;31603;51.148;16.932;2022-10-16T00:03:36;14.50;;;10.85;;
45893;SDS011;31603;51.148;16.932;2022-10-16T00:06:03;18.48;;;12.95;;
45893;SDS011;31603;51.148;16.932;2022-10-16T00:08:32;16.90;;;12.57;;
45893;SDS011;31603;51.148;16.932;2022-10-16T00:11:00;17.17;;;11.70;;
45893;SDS011;31603;51.148;16.932;2022-10-16T00:13:28;15.90;;;10.60;;
45893;SDS011;31603;51.148;16.932;2022-10-16T00:15:54;15.93;;;10.95;;
45893;SDS011;31603;51.148;16.932;2022-10-16T00:18:24;15.63;;;10.77;;
45893;SDS011;31603;51.148;16.932;2022-10-16T00:20:51;12.23;;;9.80;;
45893;SDS011;31603;51.148;16.932;2022-10-16T00:23:18;15.82;;;9.82;;
45893;SDS011;31603;51.148;16.932;2022-10-16T00:25:53;11.50;;;9.15;;
45893;SDS011;31603;51.148;16.932;2022-10-16T00:28:21;14.75;;;10.18;;
45893;SDS011;31603;51.148;16.932;2022-10-16T00:30:47;13.88;;;10.10;;
45893;SDS011;31603;51.148;16.932;2022-10-16T00:33:14;14.90;;;10.70;;
45893;SDS011;31603;51.148;16.932;2022-10-16T00:35:40;12.05;;;8.85;;
45893;SDS011;31603;51.148;16.932;2022-10-16T00:38:07;14.25;;;8.50;;
45893;SDS011;31603;51.148;16.932;2022-10-16T00:40:34;12.05;;;8.80;;
45893;SDS011;31603;51.148;16.932;2022-10-16T00:43:01;12.95;;;8.52;;
45893;SDS011;31603;51.148;16.932;2022-10-16T00:45:28;10.90;;;8.70;;
45893;SDS011;31603;51.148;16.932;2022-10-16T00:47:55;13.02;;;8.90;;
45893;SDS011;31603;51.148;16.932;2022-10-16T00:50:24;12.10;;;9.13;;
45893;SDS011;31603;51.148;16.932;2022-10-16T00:52:54;14.50;;;9.15;;
45893;SDS011;31603;51.148;16.932;2022-10-16T00:55:22;11.50;;;8.27;;
45893;SDS011;31603;51.148;16.932;2022-10-16T00:57:49;12.13;;;8.48;;
45893;SDS011;31603;51.148;16.932;2022-10-16T01:00:20;12.13;;;8.70;;
45893;SDS011;31603;51.148;16.932;2022-10-16T01:02:52;12.15;;;9.05;;
45893;SDS011;31603;51.148;16.932;2022-10-16T01:05:20;15.02;;;8.27;;
45893;SDS011;31603;51.148;16.932;2022-10-16T01:07:51;11.07;;;8.63;;
45893;SDS011;31603;51.148;16.932;2022-10-16T01:10:26;13.25;;;10.10;;
45893;SDS011;31603;51.148;16.932;2022-10-16T01:12:58;13.68;;;8.82;;
45893;SDS011;31603;51.148;16.932;2022-10-16T01:15:29;12.20;;;9.25;;
45893;SDS011;31603;51.148;16.932;2022-10-16T01:20:27;14.60;;;9.82;;
45893;SDS011;31603;51.148;16.932;2022-10-16T01:22:59;16.20;;;10.05;;
45893;SDS011;31603;51.148;16.932;2022-10-16T01:25:36;13.63;;;10.65;;
45893;SDS011;31603;51.148;16.932;2022-10-16T01:28:14;13.02;;;9.63;;
45893;SDS011;31603;51.148;16.932;2022-10-16T01:30:43;11.88;;;9.23;;
45893;SDS011;31603;51.148;16.932;2022-10-16T01:33:13;14.63;;;10.55;;
45893;SDS011;31603;51.148;16.932;2022-10-16T01:35:45;13.18;;;9.82;;
45893;SDS011;31603;51.148;16.932;2022-10-16T01:38:16;13.60;;;9.43;;
45893;SDS011;31603;51.148;16.932;2022-10-16T01:40:46;15.50;;;9.57;;
45893;SDS011;31603;51.148;16.932;2022-10-16T01:45:47;18.58;;;10.95;;
45893;SDS011;31603;51.148;16.932;2022-10-16T01:48:14;11.75;;;9.95;;
45893;SDS011;31603;51.148;16.932;2022-10-16T01:50:43;13.70;;;10.32;;
45893;SDS011;31603;51.148;16.932;2022-10-16T01:53:15;13.52;;;10.20;;
45893;SDS011;31603;51.148;16.932;2022-10-16T01:55:44;15.95;;;10.15;;
45893;SDS011;31603;51.148;16.932;2022-10-16T01:58:14;15.45;;;10.02;;
45893;SDS011;31603;51.148;16.932;2022-10-16T02:00:44;14.82;;;10.63;;
45893;SDS011;31603;51.148;16.932;2022-10-16T02:03:13;14.80;;;10.45;;
45893;SDS011;31603;51.148;16.932;2022-10-16T02:05:42;13.80;;;9.88;;
45893;SDS011;31603;51.148;16.932;2022-10-16T02:08:12;12.68;;;9.68;;
45893;SDS011;31603;51.148;16.932;2022-10-16T02:10:40;15.80;;;10.70;;
45893;SDS011;31603;51.148;16.932;2022-10-16T02:13:09;15.07;;;10.93;;
45893;SDS011;31603;51.148;16.932;2022-10-16T02:15:38;14.57;;;10.65;;
45893;SDS011;31603;51.148;16.932;2022-10-16T02:18:06;15.25;;;10.48;;
45893;SDS011;31603;51.148;16.932;2022-10-16T02:20:36;15.02;;;10.85;;
45893;SDS011;31603;51.148;16.932;2022-10-16T02:23:11;14.57;;;9.48;;
45893;SDS011;31603;51.148;16.932;2022-10-16T02:25:44;13.25;;;9.93;;
45893;SDS011;31603;51.148;16.932;2022-10-16T02:28:14;12.90;;;9.75;;
45893;SDS011;31603;51.148;16.932;2022-10-16T02:30:45;12.93;;;9.60;;
45893;SDS011;31603;51.148;16.932;2022-10-16T02:33:16;12.60;;;9.65;;
45893;SDS011;31603;51.148;16.932;2022-10-16T02:35:46;15.10;;;9.43;;
45893;SDS011;31603;51.148;16.932;2022-10-16T02:38:15;15.30;;;10.25;;
45893;SDS011;31603;51.148;16.932;2022-10-16T02:40:43;15.88;;;10.48;;
45893;SDS011;31603;51.148;16.932;2022-10-16T02:43:12;12.50;;;9.38;;
45893;SDS011;31603;51.148;16.932;2022-10-16T02:45:39;12.80;;;9.43;;
45893;SDS011;31603;51.148;16.932;2022-10-16T02:48:06;14.63;;;9.90;;
45893;SDS011;31603;51.148;16.932;2022-10-16T02:50:33;15.18;;;10.57;;
45893;SDS011;31603;51.148;16.932;2022-10-16T02:53:00;17.73;;;10.40;;
45893;SDS011;31603;51.148;16.932;2022-10-16T02:55:27;14.55;;;10.63;;
45893;SDS011;31603;51.148;16.932;2022-10-16T02:57:53;15.02;;;10.15;;
45893;SDS011;31603;51.148;16.932;2022-10-16T03:00:20;16.50;;;10.13;;
45893;SDS011;31603;51.148;16.932;2022-10-16T03:02:46;13.88;;;9.57;;
45893;SDS011;31603;51.148;16.932;2022-10-16T03:05:13;15.77;;;10.38;;
45893;SDS011;31603;51.148;16.932;2022-10-16T03:07:41;16.85;;;10.35;;
45893;SDS011;31603;51.148;16.932;2022-10-16T03:10:08;16.27;;;10.55;;
45893;SDS011;31603;51.148;16.932;2022-10-16T03:12:34;13.27;;;9.43;;
45893;SDS011;31603;51.148;16.932;2022-10-16T03:15:01;14.68;;;9.27;;
45893;SDS011;31603;51.148;16.932;2022-10-16T03:17:29;13.65;;;9.82;;
45893;SDS011;31603;51.148;16.932;2022-10-16T03:19:56;14.52;;;9.65;;
45893;SDS011;31603;51.148;16.932;2022-10-16T03:22:22;13.43;;;9.88;;
45893;SDS011;31603;51.148;16.932;2022-10-16T03:24:50;11.50;;;9.40;;
45893;SDS011;31603;51.148;16.932;2022-10-16T03:27:16;13.80;;;9.13;;
45893;SDS011;31603;51.148;16.932;2022-10-16T03:29:43;14.50;;;10.10;;
45893;SDS011;31603;51.148;16.932;2022-10-16T03:32:09;12.75;;;10.18;;
45893;SDS011;31603;51.148;16.932;2022-10-16T03:34:36;13.27;;;10.05;;
45893;SDS011;31603;51.148;16.932;2022-10-16T03:37:02;17.33;;;11.05;;
45893;SDS011;31603;51.148;16.932;2022-10-16T03:39:29;17.55;;;10.48;;
45893;SDS011;31603;51.148;16.932;2022-10-16T03:41:56;13.55;;;9.98;;
45893;SDS011;31603;51.148;16.932;2022-10-16T03:44:23;12.93;;;9.57;;
45893;SDS011;31603;51.148;16.932;2022-10-16T03:46:49;12.00;;;8.80;;
45893;SDS011;31603;51.148;16.932;2022-10-16T03:49:16;12.90;;;9.60;;
45893;SDS011;31603;51.148;16.932;2022-10-16T03:51:42;15.25;;;9.70;;
45893;SDS011;31603;51.148;16.932;2022-10-16T03:54:09;15.27;;;10.57;;
45893;SDS011;31603;51.148;16.932;2022-10-16T03:56:37;13.93;;;9.48;;
45893;SDS011;31603;51.148;16.932;2022-10-16T03:59:04;12.95;;;10.25;;
45893;SDS011;31603;51.148;16.932;2022-10-16T04:01:31;13.45;;;9.52;;
45893;SDS011;31603;51.148;16.932;2022-10-16T04:03:57;14.25;;;9.73;;
45893;SDS011;31603;51.148;16.932;2022-10-16T04:06:23;13.38;;;9.48;;
45893;SDS011;31603;51.148;16.932;2022-10-16T04:08:50;16.80;;;10.68;;
45893;SDS011;31603;51.148;16.932;2022-10-16T04:11:16;13.50;;;10.10;;
45893;SDS011;31603;51.148;16.932;2022-10-16T04:13:43;13.30;;;9.05;;
45893;SDS011;31603;51.148;16.932;2022-10-16T04:16:10;12.18;;;9.45;;
45893;SDS011;31603;51.148;16.932;2022-10-16T04:18:37;13.98;;;10.30;;
45893;SDS011;31603;51.148;16.932;2022-10-16T04:21:03;13.32;;;9.77;;
45893;SDS011;31603;51.148;16.932;2022-10-16T04:23:30;13.40;;;9.32;;
45893;SDS011;31603;51.148;16.932;2022-10-16T04:25:57;13.65;;;9.98;;
45893;SDS011;31603;51.148;16.932;2022-10-16T04:28:23;15.57;;;10.23;;
45893;SDS011;31603;51.148;16.932;2022-10-16T04:30:50;12.95;;;10.00;;
45893;SDS011;31603;51.148;16.932;2022-10-16T04:33:18;13.57;;;10.30;;
45893;SDS011;31603;51.148;16.932;2022-10-16T04:35:44;13.05;;;10.32;;
45893;SDS011;31603;51.148;16.932;2022-10-16T04:38:11;14.20;;;10.70;;
45893;SDS011;31603;51.148;16.932;2022-10-16T04:40:42;12.07;;;9.90;;
45893;SDS011;31603;51.148;16.932;2022-10-16T04:43:08;17.73;;;11.68;;
45893;SDS011;31603;51.148;16.932;2022-10-16T04:45:35;13.32;;;10.02;;
45893;SDS011;31603;51.148;16.932;2022-10-16T04:48:02;14.30;;;9.85;;
45893;SDS011;31603;51.148;16.932;2022-10-16T04:50:29;13.32;;;9.82;;
45893;SDS011;31603;51.148;16.932;2022-10-16T04:52:56;13.63;;;9.68;;
45893;SDS011;31603;51.148;16.932;2022-10-16T04:55:22;17.23;;;9.95;;
45893;SDS011;31603;51.148;16.932;2022-10-16T04:57:49;15.50;;;10.98;;
45893;SDS011;31603;51.148;16.932;2022-10-16T05:00:15;12.50;;;9.85;;
45893;SDS011;31603;51.148;16.932;2022-10-16T05:02:50;14.52;;;10.27;;
45893;SDS011;31603;51.148;16.932;2022-10-16T05:05:33;13.00;;;9.75;;
45893;SDS011;31603;51.148;16.932;2022-10-16T05:08:08;13.02;;;9.27;;
45893;SDS011;31603;51.148;16.932;2022-10-16T05:10:34;15.07;;;10.80;;
45893;SDS011;31603;51.148;16.932;2022-10-16T05:13:00;12.95;;;9.23;;
45893;SDS011;31603;51.148;16.932;2022-10-16T05:15:27;14.48;;;10.40;;
45893;SDS011;31603;51.148;16.932;2022-10-16T05:17:53;14.32;;;11.27;;
45893;SDS011;31603;51.148;16.932;2022-10-16T05:20:21;13.20;;;9.43;;
45893;SDS011;31603;51.148;16.932;2022-10-16T05:22:50;14.35;;;8.63;;
45893;SDS011;31603;51.148;16.932;2022-10-16T05:25:20;12.95;;;8.70;;
45893;SDS011;31603;51.148;16.932;2022-10-16T05:27:48;10.57;;;8.35;;
45893;SDS011;31603;51.148;16.932;2022-10-16T05:30:16;12.63;;;9.27;;
45893;SDS011;31603;51.148;16.932;2022-10-16T05:32:45;12.25;;;8.63;;
45893;SDS011;31603;51.148;16.932;2022-10-16T05:35:12;10.52;;;8.70;;
45893;SDS011;31603;51.148;16.932;2022-10-16T05:37:39;10.73;;;8.60;;
45893;SDS011;31603;51.148;16.932;2022-10-16T05:40:07;12.82;;;8.55;;
45893;SDS011;31603;51.148;16.932;2022-10-16T05:42:34;10.85;;;7.93;;
45893;SDS011;31603;51.148;16.932;2022-10-16T05:45:02;10.40;;;8.35;;
45893;SDS011;31603;51.148;16.932;2022-10-16T05:47:29;11.25;;;8.00;;
45893;SDS011;31603;51.148;16.932;2022-10-16T05:49:55;11.80;;;8.40;;
45893;SDS011;31603;51.148;16.932;2022-10-16T05:52:21;11.07;;;8.88;;
45893;SDS011;31603;51.148;16.932;2022-10-16T05:54:48;12.88;;;9.05;;
45893;SDS011;31603;51.148;16.932;2022-10-16T05:57:16;12.57;;;8.95;;
45893;SDS011;31603;51.148;16.932;2022-10-16T05:59:42;12.05;;;9.73;;
45893;SDS011;31603;51.148;16.932;2022-10-16T06:02:10;13.63;;;9.70;;
45893;SDS011;31603;51.148;16.932;2022-10-16T06:04:40;14.38;;;8.90;;
45893;SDS011;31603;51.148;16.932;2022-10-16T06:07:07;12.43;;;9.02;;
45893;SDS011;31603;51.148;16.932;2022-10-16T06:09:33;12.02;;;9.27;;
45893;SDS011;31603;51.148;16.932;2022-10-16T06:12:00;12.55;;;9.75;;
45893;SDS011;31603;51.148;16.932;2022-10-16T06:14:32;13.48;;;9.88;;
45893;SDS011;31603;51.148;16.932;2022-10-16T06:16:58;12.30;;;9.55;;
45893;SDS011;31603;51.148;16.932;2022-10-16T06:19:25;13.45;;;9.75;;
45893;SDS011;31603;51.148;16.932;2022-10-16T06:21:51;12.60;;;8.93;;
45893;SDS011;31603;51.148;16.932;2022-10-16T06:24:18;13.65;;;8.93;;
45893;SDS011;31603;51.148;16.932;2022-10-16T06:26:44;13.55;;;9.30;;
45893;SDS011;31603;51.148;16.932;2022-10-16T06:29:11;12.35;;;8.98;;
45893;SDS011;31603;51.148;16.932;2022-10-16T06:31:38;12.20;;;8.77;;
45893;SDS011;31603;51.148;16.932;2022-10-16T06:34:05;10.90;;;8.93;;
45893;SDS011;31603;51.148;16.932;2022-10-16T06:36:34;12.70;;;8.35;;
45893;SDS011;31603;51.148;16.932;2022-10-16T06:39:01;10.48;;;8.15;;
45893;SDS011;31603;51.148;16.932;2022-10-16T06:41:27;10.25;;;8.10;;
45893;SDS011;31603;51.148;16.932;2022-10-16T06:43:54;10.07;;;7.97;;
45893;SDS011;31603;51.148;16.932;2022-10-16T06:46:21;9.20;;;7.32;;
45893;SDS011;31603;51.148;16.932;2022-10-16T06:48:52;10.43;;;7.82;;
45893;SDS011;31603;51.148;16.932;2022-10-16T06:51:19;10.57;;;7.80;;
45893;SDS011;31603;51.148;16.932;2022-10-16T06:53:47;10.77;;;7.72;;
45893;SDS011;31603;51.148;16.932;2022-10-16T06:56:17;11.95;;;7.95;;
45893;SDS011;31603;51.148;16.932;2022-10-16T06:58:45;11.25;;;7.38;;
45893;SDS011;31603;51.148;16.932;2022-10-16T07:01:12;9.95;;;7.25;;
45893;SDS011;31603;51.148;16.932;2022-10-16T07:03:41;9.68;;;7.00;;
45893;SDS011;31603;51.148;16.932;2022-10-16T07:06:10;8.32;;;6.55;;
45893;SDS011;31603;51.148;16.932;2022-10-16T07:08:40;8.18;;;6.22;;
45893;SDS011;31603;51.148;16.932;2022-10-16T07:11:08;9.00;;;6.90;;
45893;SDS011;31603;51.148;16.932;2022-10-16T07:13:37;9.13;;;6.68;;
45893;SDS011;31603;51.148;16.932;2022-10-16T07:16:05;7.00;;;5.97;;
45893;SDS011;31603;51.148;16.932;2022-10-16T07:18:32;9.93;;;6.78;;
45893;SDS011;31603;51.148;16.932;2022-10-16T07:21:02;8.20;;;6.60;;
45893;SDS011;31603;51.148;16.932;2022-10-16T07:23:33;7.68;;;6.00;;
45893;SDS011;31603;51.148;16.932;2022-10-16T07:26:00;11.50;;;7.43;;
45893;SDS011;31603;51.148;16.932;2022-10-16T07:28:27;12.35;;;6.45;;
45893;SDS011;31603;51.148;16.932;2022-10-16T07:30:53;8.38;;;5.80;;
45893;SDS011;31603;51.148;16.932;2022-10-16T07:33:20;7.40;;;5.70;;
45893;SDS011;31603;51.148;16.932;2022-10-16T07:35:47;7.65;;;5.68;;
45893;SDS011;31603;51.148;16.932;2022-10-16T07:38:17;9.13;;;5.70;;
45893;SDS011;31603;51.148;16.932;2022-10-16T07:40:45;8.75;;;5.45;;
45893;SDS011;31603;51.148;16.932;2022-10-16T07:43:12;8.02;;;6.07;;
45893;SDS011;31603;51.148;16.932;2022-10-16T07:45:46;8.25;;;5.93;;
45893;SDS011;31603;51.148;16.932;2022-10-16T07:48:13;8.18;;;6.18;;
45893;SDS011;31603;51.148;16.932;2022-10-16T07:50:40;8.88;;;5.53;;
45893;SDS011;31603;51.148;16.932;2022-10-16T07:53:06;6.82;;;5.30;;
45893;SDS011;31603;51.148;16.932;2022-10-16T07:55:37;7.20;;;5.80;;
45893;SDS011;31603;51.148;16.932;2022-10-16T07:58:05;10.30;;;6.53;;
45893;SDS011;31603;51.148;16.932;2022-10-16T08:00:32;6.78;;;5.50;;
45893;SDS011;31603;51.148;16.932;2022-10-16T08:02:59;5.72;;;4.38;;
45893;SDS011;31603;51.148;16.932;2022-10-16T08:05:33;9.85;;;5.00;;
45893;SDS011;31603;51.148;16.932;2022-10-16T08:08:00;6.53;;;5.68;;
45893;SDS011;31603;51.148;16.932;2022-10-16T08:10:30;8.68;;;5.30;;
45893;SDS011;31603;51.148;16.932;2022-10-16T08:12:56;6.80;;;4.88;;
45893;SDS011;31603;51.148;16.932;2022-10-16T08:15:28;7.78;;;5.30;;
45893;SDS011;31603;51.148;16.932;2022-10-16T08:17:55;7.88;;;4.68;;
45893;SDS011;31603;51.148;16.932;2022-10-16T08:20:23;5.53;;;4.55;;
45893;SDS011;31603;51.148;16.932;2022-10-16T08:22:49;5.15;;;4.63;;
45893;SDS011;31603;51.148;16.932;2022-10-16T08:25:16;8.85;;;6.10;;
45893;SDS011;31603;51.148;16.932;2022-10-16T08:27:42;7.00;;;4.60;;
45893;SDS011;31603;51.148;16.932;2022-10-16T08:30:10;5.78;;;4.47;;
45893;SDS011;31603;51.148;16.932;2022-10-16T08:32:38;6.57;;;4.13;;
45893;SDS011;31603;51.148;16.932;2022-10-16T08:35:06;5.55;;;3.85;;
45893;SDS011;31603;51.148;16.932;2022-10-16T08:37:34;4.95;;;3.88;;
45893;SDS011;31603;51.148;16.932;2022-10-16T08:40:00;4.55;;;3.70;;
45893;SDS011;31603;51.148;16.932;2022-10-16T08:42:31;4.45;;;3.58;;
45893;SDS011;31603;51.148;16.932;2022-10-16T08:45:12;4.93;;;3.60;;
45893;SDS011;31603;51.148;16.932;2022-10-16T08:47:50;3.90;;;3.10;;
45893;SDS011;31603;51.148;16.932;2022-10-16T08:50:26;4.18;;;3.53;;
45893;SDS011;31603;51.148;16.932;2022-10-16T08:52:54;6.63;;;2.90;;
45893;SDS011;31603;51.148;16.932;2022-10-16T08:55:29;5.28;;;3.17;;
45893;SDS011;31603;51.148;16.932;2022-10-16T08:57:59;5.22;;;3.28;;
45893;SDS011;31603;51.148;16.932;2022-10-16T09:00:26;4.78;;;3.30;;
45893;SDS011;31603;51.148;16.932;2022-10-16T09:02:55;3.70;;;2.90;;
45893;SDS011;31603;51.148;16.932;2022-10-16T09:08:31;4.80;;;2.85;;
45893;SDS011;31603;51.148;16.932;2022-10-16T09:11:09;3.58;;;2.83;;
45893;SDS011;31603;51.148;16.932;2022-10-16T09:13:46;3.03;;;2.50;;
45893;SDS011;31603;51.148;16.932;2022-10-16T09:16:19;5.88;;;2.70;;
45893;SDS011;31603;51.148;16.932;2022-10-16T09:18:54;5.57;;;2.83;;
45893;SDS011;31603;51.148;16.932;2022-10-16T09:21:27;3.45;;;2.20;;
45893;SDS011;31603;51.148;16.932;2022-10-16T09:23:57;3.80;;;2.38;;
45893;SDS011;31603;51.148;16.932;2022-10-16T09:26:25;5.28;;;2.97;;
45893;SDS011;31603;51.148;16.932;2022-10-16T09:28:52;4.22;;;2.53;;
45893;SDS011;31603;51.148;16.932;2022-10-16T09:31:22;3.15;;;2.47;;
45893;SDS011;31603;51.148;16.932;2022-10-16T09:33:50;3.33;;;2.60;;
45893;SDS011;31603;51.148;16.932;2022-10-16T09:36:21;4.10;;;2.55;;
45893;SDS011;31603;51.148;16.932;2022-10-16T09:39:03;3.38;;;2.78;;
45893;SDS011;31603;51.148;16.932;2022-10-16T09:41:30;3.08;;;2.70;;
45893;SDS011;31603;51.148;16.932;2022-10-16T09:44:00;5.45;;;2.92;;
45893;SDS011;31603;51.148;16.932;2022-10-16T09:46:31;2.70;;;2.47;;
45893;SDS011;31603;51.148;16.932;2022-10-16T09:49:00;4.43;;;3.20;;
45893;SDS011;31603;51.148;16.932;2022-10-16T09:51:29;4.15;;;2.80;;
45893;SDS011;31603;51.148;16.932;2022-10-16T09:53:58;4.93;;;2.80;;
45893;SDS011;31603;51.148;16.932;2022-10-16T09:56:26;3.63;;;2.97;;
45893;SDS011;31603;51.148;16.932;2022-10-16T09:59:00;3.72;;;2.80;;
45893;SDS011;31603;51.148;16.932;2022-10-16T10:01:35;3.40;;;3.10;;
45893;SDS011;31603;51.148;16.932;2022-10-16T10:04:06;3.92;;;2.80;;
45893;SDS011;31603;51.148;16.932;2022-10-16T10:06:34;4.00;;;3.20;;
45893;SDS011;31603;51.148;16.932;2022-10-16T10:09:06;3.45;;;2.92;;
45893;SDS011;31603;51.148;16.932;2022-10-16T10:11:44;3.20;;;2.90;;
45893;SDS011;31603;51.148;16.932;2022-10-16T10:14:16;5.15;;;3.38;;
45893;SDS011;31603;51.148;16.932;2022-10-16T10:16:48;5.18;;;3.25;;
45893;SDS011;31603;51.148;16.932;2022-10-16T10:19:18;4.10;;;2.95;;
45893;SDS011;31603;51.148;16.932;2022-10-16T10:21:47;3.55;;;3.22;;
45893;SDS011;31603;51.148;16.932;2022-10-16T10:24:16;3.35;;;2.78;;
45893;SDS011;31603;51.148;16.932;2022-10-16T10:26:47;3.88;;;2.90;;
45893;SDS011;31603;51.148;16.932;2022-10-16T10:29:28;2.92;;;2.63;;
45893;SDS011;31603;51.148;16.932;2022-10-16T10:32:07;3.20;;;2.60;;
45893;SDS011;31603;51.148;16.932;2022-10-16T10:34:47;3.65;;;2.40;;
45893;SDS011;31603;51.148;16.932;2022-10-16T10:37:32;2.70;;;2.50;;
45893;SDS011;31603;51.148;16.932;2022-10-16T10:40:15;3.30;;;3.00;;
45893;SDS011;31603;51.148;16.932;2022-10-16T10:45:26;4.50;;;2.35;;
45893;SDS011;31603;51.148;16.932;2022-10-16T10:48:04;2.55;;;2.35;;
45893;SDS011;31603;51.148;16.932;2022-10-16T10:50:45;3.08;;;2.33;;
45893;SDS011;31603;51.148;16.932;2022-10-16T10:53:21;2.35;;;2.15;;
45893;SDS011;31603;51.148;16.932;2022-10-16T10:55:59;3.70;;;2.20;;
45893;SDS011;31603;51.148;16.932;2022-10-16T10:58:41;2.50;;;2.13;;
45893;SDS011;31603;51.148;16.932;2022-10-16T11:01:16;2.60;;;2.28;;
45893;SDS011;31603;51.148;16.932;2022-10-16T11:03:57;3.13;;;2.08;;
45893;SDS011;31603;51.148;16.932;2022-10-16T11:06:39;2.83;;;2.17;;
45893;SDS011;31603;51.148;16.932;2022-10-16T11:09:10;2.13;;;1.88;;
45893;SDS011;31603;51.148;16.932;2022-10-16T11:11:40;2.63;;;2.30;;
45893;SDS011;31603;51.148;16.932;2022-10-16T11:14:12;2.70;;;2.13;;
45893;SDS011;31603;51.148;16.932;2022-10-16T11:16:43;2.20;;;2.00;;
45893;SDS011;31603;51.148;16.932;2022-10-16T11:19:18;3.20;;;2.97;;
45893;SDS011;31603;51.148;16.932;2022-10-16T11:21:54;2.67;;;2.47;;
45893;SDS011;31603;51.148;16.932;2022-10-16T11:24:28;2.33;;;2.00;;
45893;SDS011;31603;51.148;16.932;2022-10-16T11:27:03;2.30;;;2.10;;
45893;SDS011;31603;51.148;16.932;2022-10-16T11:29:34;3.83;;;2.33;;
45893;SDS011;31603;51.148;16.932;2022-10-16T11:32:10;3.33;;;2.45;;
45893;SDS011;31603;51.148;16.932;2022-10-16T11:34:47;2.60;;;2.17;;
45893;SDS011;31603;51.148;16.932;2022-10-16T11:37:18;3.63;;;2.27;;
45893;SDS011;31603;51.148;16.932;2022-10-16T11:39:49;2.70;;;2.20;;
45893;SDS011;31603;51.148;16.932;2022-10-16T11:42:19;2.60;;;2.20;;
45893;SDS011;31603;51.148;16.932;2022-10-16T11:44:51;3.38;;;2.63;;
45893;SDS011;31603;51.148;16.932;2022-10-16T11:47:26;6.13;;;2.67;;
45893;SDS011;31603;51.148;16.932;2022-10-16T11:49:58;3.03;;;2.72;;
45893;SDS011;31603;51.148;16.932;2022-10-16T11:52:33;2.90;;;2.60;;
45893;SDS011;31603;51.148;16.932;2022-10-16T11:55:12;3.55;;;2.90;;
45893;SDS011;31603;51.148;16.932;2022-10-16T11:57:43;5.07;;;3.33;;
45893;SDS011;31603;51.148;16.932;2022-10-16T12:00:18;3.75;;;2.90;;
45893;SDS011;31603;51.148;16.932;2022-10-16T12:02:50;3.92;;;2.97;;
45893;SDS011;31603;51.148;16.932;2022-10-16T12:05:25;3.97;;;2.88;;
45893;SDS011;31603;51.148;16.932;2022-10-16T12:08:03;3.90;;;2.72;;
45893;SDS011;31603;51.148;16.932;2022-10-16T12:10:37;3.33;;;3.03;;
45893;SDS011;31603;51.148;16.932;2022-10-16T12:13:04;4.40;;;3.17;;
45893;SDS011;31603;51.148;16.932;2022-10-16T12:15:52;3.85;;;2.90;;
45893;SDS011;31603;51.148;16.932;2022-10-16T12:18:31;3.53;;;3.20;;
45893;SDS011;31603;51.148;16.932;2022-10-16T12:20:58;3.10;;;2.80;;
45893;SDS011;31603;51.148;16.932;2022-10-16T12:23:31;3.25;;;2.80;;
45893;SDS011;31603;51.148;16.932;2022-10-16T12:25:59;4.38;;;2.90;;
45893;SDS011;31603;51.148;16.932;2022-10-16T12:28:27;2.90;;;2.70;;
45893;SDS011;31603;51.148;16.932;2022-10-16T12:30:56;3.80;;;3.42;;
45893;SDS011;31603;51.148;16.932;2022-10-16T12:33:25;3.38;;;3.08;;
45893;SDS011;31603;51.148;16.932;2022-10-16T12:35:53;3.30;;;2.95;;
45893;SDS011;31603;51.148;16.932;2022-10-16T12:38:20;3.60;;;3.30;;
45893;SDS011;31603;51.148;16.932;2022-10-16T12:40:56;3.80;;;3.13;;
45893;SDS011;31603;51.148;16.932;2022-10-16T12:43:27;3.45;;;3.15;;
45893;SDS011;31603;51.148;16.932;2022-10-16T12:46:05;6.18;;;3.30;;
45893;SDS011;31603;51.148;16.932;2022-10-16T12:48:47;5.15;;;3.42;;
45893;SDS011;31603;51.148;16.932;2022-10-16T12:51:21;3.67;;;3.25;;
45893;SDS011;31603;51.148;16.932;2022-10-16T12:53:59;3.85;;;3.25;;
45893;SDS011;31603;51.148;16.932;2022-10-16T12:56:31;3.90;;;3.45;;
45893;SDS011;31603;51.148;16.932;2022-10-16T12:59:09;3.92;;;3.38;;
45893;SDS011;31603;51.148;16.932;2022-10-16T13:01:54;3.65;;;3.30;;
45893;SDS011;31603;51.148;16.932;2022-10-16T13:04:39;3.45;;;3.10;;
45893;SDS011;31603;51.148;16.932;2022-10-16T13:07:31;5.03;;;3.40;;
45893;SDS011;31603;51.148;16.932;2022-10-16T13:10:14;3.47;;;3.17;;
45893;SDS011;31603;51.148;16.932;2022-10-16T13:15:54;5.93;;;3.25;;
45893;SDS011;31603;51.148;16.932;2022-10-16T13:18:32;3.50;;;3.20;;
45893;SDS011;31603;51.148;16.932;2022-10-16T13:21:13;5.40;;;3.42;;
45893;SDS011;31603;51.148;16.932;2022-10-16T13:23:50;4.05;;;3.30;;
45893;SDS011;31603;51.148;16.932;2022-10-16T13:26:28;4.60;;;3.47;;
45893;SDS011;31603;51.148;16.932;2022-10-16T13:29:02;3.90;;;3.25;;
45893;SDS011;31603;51.148;16.932;2022-10-16T13:31:30;5.63;;;4.00;;
45893;SDS011;31603;51.148;16.932;2022-10-16T13:33:59;5.68;;;3.50;;
45893;SDS011;31603;51.148;16.932;2022-10-16T13:36:27;4.32;;;3.10;;
45893;SDS011;31603;51.148;16.932;2022-10-16T13:39:03;4.18;;;3.33;;
45893;SDS011;31603;51.148;16.932;2022-10-16T13:41:36;6.35;;;3.88;;
45893;SDS011;31603;51.148;16.932;2022-10-16T13:44:04;4.07;;;3.20;;
45893;SDS011;31603;51.148;16.932;2022-10-16T13:46:34;4.85;;;3.22;;
45893;SDS011;31603;51.148;16.932;2022-10-16T13:49:01;3.65;;;3.00;;
45893;SDS011;31603;51.148;16.932;2022-10-16T13:51:29;6.88;;;3.42;;
45893;SDS011;31603;51.148;16.932;2022-10-16T13:53:56;3.90;;;3.35;;
45893;SDS011;31603;51.148;16.932;2022-10-16T13:56:24;3.75;;;3.10;;
45893;SDS011;31603;51.148;16.932;2022-10-16T13:58:59;4.70;;;3.20;;
45893;SDS011;31603;51.148;16.932;2022-10-16T14:01:29;5.55;;;3.22;;
45893;SDS011;31603;51.148;16.932;2022-10-16T14:04:00;3.13;;;2.67;;
45893;SDS011;31603;51.148;16.932;2022-10-16T14:06:30;3.67;;;3.10;;
45893;SDS011;31603;51.148;16.932;2022-10-16T14:08:59;3.13;;;2.65;;
45893;SDS011;31603;51.148;16.932;2022-10-16T14:11:28;3.63;;;3.05;;
45893;SDS011;31603;51.148;16.932;2022-10-16T14:13:55;3.15;;;2.42;;
45893;SDS011;31603;51.148;16.932;2022-10-16T14:16:22;4.50;;;2.83;;
45893;SDS011;31603;51.148;16.932;2022-10-16T14:18:55;3.55;;;2.78;;
45893;SDS011;31603;51.148;16.932;2022-10-16T14:21:23;5.13;;;3.20;;
45893;SDS011;31603;51.148;16.932;2022-10-16T14:23:51;3.20;;;2.60;;
45893;SDS011;31603;51.148;16.932;2022-10-16T14:26:19;3.35;;;3.05;;
45893;SDS011;31603;51.148;16.932;2022-10-16T14:28:48;3.20;;;2.90;;
45893;SDS011;31603;51.148;16.932;2022-10-16T14:31:28;3.80;;;2.83;;
45893;SDS011;31603;51.148;16.932;2022-10-16T14:33:58;3.25;;;2.88;;
45893;SDS011;31603;51.148;16.932;2022-10-16T14:36:25;3.22;;;2.92;;
45893;SDS011;31603;51.148;16.932;2022-10-16T14:38:56;3.75;;;2.85;;
45893;SDS011;31603;51.148;16.932;2022-10-16T14:41:26;6.40;;;2.97;;
45893;SDS011;31603;51.148;16.932;2022-10-16T14:43:54;5.43;;;3.22;;
45893;SDS011;31603;51.148;16.932;2022-10-16T14:46:23;3.60;;;3.30;;
45893;SDS011;31603;51.148;16.932;2022-10-16T14:48:58;8.82;;;4.38;;
45893;SDS011;31603;51.148;16.932;2022-10-16T14:51:28;9.25;;;5.15;;
45893;SDS011;31603;51.148;16.932;2022-10-16T14:53:55;4.65;;;3.70;;
45893;SDS011;31603;51.148;16.932;2022-10-16T14:56:22;5.95;;;4.03;;